sensor_id;sensor_type;location;lat;lon;timestamp;P1;durP1;ratioP1;P2;durP2;ratioP2
43793;SDS011;29414;44.798;20.366;2023-04-03T00:03:37;4.97;;;4.47;;
43793;SDS011;29414;44.798;20.366;2023-04-03T00:07:37;5.60;;;5.10;;
43793;SDS011;29414;44.798;20.366;2023-04-03T00:11:37;6.93;;;4.45;;
43793;SDS011;29414;44.798;20.366;2023-04-03T00:15:38;5.37;;;4.57;;
43793;SDS011;29414;44.798;20.366;2023-04-03T00:19:39;4.67;;;4.27;;
43793;SDS011;29414;44.798;20.366;2023-04-03T00:23:39;3.60;;;3.30;;
43793;SDS011;29414;44.798;20.366;2023-04-03T00:27:39;3.73;;;2.83;;
43793;SDS011;29414;44.798;20.366;2023-04-03T00:31:40;2.80;;;2.60;;
43793;SDS011;29414;44.798;20.366;2023-04-03T00:35:40;2.70;;;2.50;;
43793;SDS011;29414;44.798;20.366;2023-04-03T00:39:41;2.90;;;2.70;;
43793;SDS011;29414;44.798;20.366;2023-04-03T00:43:41;4.53;;;2.37;;
43793;SDS011;29414;44.798;20.366;2023-04-03T00:47:42;4.43;;;2.97;;
43793;SDS011;29414;44.798;20.366;2023-04-03T00:51:42;2.87;;;2.63;;
43793;SDS011;29414;44.798;20.366;2023-04-03T00:55:42;2.80;;;2.60;;
43793;SDS011;29414;44.798;20.366;2023-04-03T00:59:44;3.40;;;2.90;;
43793;SDS011;29414;44.798;20.366;2023-04-03T01:03:46;3.90;;;3.00;;
43793;SDS011;29414;44.798;20.366;2023-04-03T01:07:46;3.30;;;3.00;;
43793;SDS011;29414;44.798;20.366;2023-04-03T01:11:47;4.83;;;2.97;;
43793;SDS011;29414;44.798;20.366;2023-04-03T01:15:48;5.57;;;4.27;;
43793;SDS011;29414;44.798;20.366;2023-04-03T01:19:48;7.53;;;5.50;;
43793;SDS011;29414;44.798;20.366;2023-04-03T01:24:00;6.47;;;5.67;;
43793;SDS011;29414;44.798;20.366;2023-04-03T01:28:05;7.90;;;6.13;;
43793;SDS011;29414;44.798;20.366;2023-04-03T01:32:06;6.40;;;5.80;;
43793;SDS011;29414;44.798;20.366;2023-04-03T01:36:07;6.43;;;5.83;;
43793;SDS011;29414;44.798;20.366;2023-04-03T01:40:07;7.07;;;6.33;;
43793;SDS011;29414;44.798;20.366;2023-04-03T01:44:08;6.80;;;6.10;;
43793;SDS011;29414;44.798;20.366;2023-04-03T01:48:08;7.15;;;6.30;;
43793;SDS011;29414;44.798;20.366;2023-04-03T01:52:08;8.03;;;6.13;;
43793;SDS011;29414;44.798;20.366;2023-04-03T01:56:09;6.10;;;5.38;;
43793;SDS011;29414;44.798;20.366;2023-04-03T02:00:09;7.03;;;5.60;;
43793;SDS011;29414;44.798;20.366;2023-04-03T02:04:10;7.10;;;6.50;;
43793;SDS011;29414;44.798;20.366;2023-04-03T02:08:10;6.93;;;6.23;;
43793;SDS011;29414;44.798;20.366;2023-04-03T02:12:10;7.03;;;6.30;;
43793;SDS011;29414;44.798;20.366;2023-04-03T02:16:10;6.55;;;5.95;;
43793;SDS011;29414;44.798;20.366;2023-04-03T02:20:11;6.90;;;6.30;;
43793;SDS011;29414;44.798;20.366;2023-04-03T02:24:11;7.63;;;6.57;;
43793;SDS011;29414;44.798;20.366;2023-04-03T02:28:12;7.45;;;6.80;;
43793;SDS011;29414;44.798;20.366;2023-04-03T02:32:12;7.68;;;6.93;;
43793;SDS011;29414;44.798;20.366;2023-04-03T02:36:15;8.83;;;6.80;;
43793;SDS011;29414;44.798;20.366;2023-04-03T02:40:15;10.67;;;7.17;;
43793;SDS011;29414;44.798;20.366;2023-04-03T02:44:16;10.63;;;6.70;;
43793;SDS011;29414;44.798;20.366;2023-04-03T02:48:16;9.74;;;8.14;;
43793;SDS011;29414;44.798;20.366;2023-04-03T02:52:16;7.67;;;6.97;;
43793;SDS011;29414;44.798;20.366;2023-04-03T02:56:17;9.90;;;8.15;;
43793;SDS011;29414;44.798;20.366;2023-04-03T03:00:18;7.63;;;6.90;;
43793;SDS011;29414;44.798;20.366;2023-04-03T03:04:18;7.60;;;6.90;;
43793;SDS011;29414;44.798;20.366;2023-04-03T03:08:19;9.03;;;8.13;;
43793;SDS011;29414;44.798;20.366;2023-04-03T03:12:20;9.23;;;8.37;;
43793;SDS011;29414;44.798;20.366;2023-04-03T03:16:21;10.67;;;8.47;;
43793;SDS011;29414;44.798;20.366;2023-04-03T03:20:21;10.23;;;8.27;;
43793;SDS011;29414;44.798;20.366;2023-04-03T03:24:22;9.60;;;8.70;;
43793;SDS011;29414;44.798;20.366;2023-04-03T03:28:22;9.40;;;8.60;;
43793;SDS011;29414;44.798;20.366;2023-04-03T03:32:22;8.90;;;8.20;;
43793;SDS011;29414;44.798;20.366;2023-04-03T03:36:22;9.88;;;8.73;;
43793;SDS011;29414;44.798;20.366;2023-04-03T03:40:23;8.63;;;7.83;;
43793;SDS011;29414;44.798;20.366;2023-04-03T03:44:23;9.02;;;8.32;;
43793;SDS011;29414;44.798;20.366;2023-04-03T03:48:23;9.00;;;8.20;;
43793;SDS011;29414;44.798;20.366;2023-04-03T03:52:23;9.57;;;8.43;;
43793;SDS011;29414;44.798;20.366;2023-04-03T03:56:24;11.27;;;9.23;;
43793;SDS011;29414;44.798;20.366;2023-04-03T04:00:24;9.63;;;8.73;;
43793;SDS011;29414;44.798;20.366;2023-04-03T04:04:24;10.03;;;9.03;;
43793;SDS011;29414;44.798;20.366;2023-04-03T04:08:25;9.75;;;8.85;;
43793;SDS011;29414;44.798;20.366;2023-04-03T04:12:25;9.80;;;8.87;;
43793;SDS011;29414;44.798;20.366;2023-04-03T04:16:25;9.83;;;8.93;;
43793;SDS011;29414;44.798;20.366;2023-04-03T04:20:25;9.90;;;9.00;;
43793;SDS011;29414;44.798;20.366;2023-04-03T04:24:26;10.50;;;9.50;;
43793;SDS011;29414;44.798;20.366;2023-04-03T04:28:26;12.50;;;10.63;;
43793;SDS011;29414;44.798;20.366;2023-04-03T04:32:26;12.18;;;10.98;;
43793;SDS011;29414;44.798;20.366;2023-04-03T04:36:26;11.93;;;10.73;;
43793;SDS011;29414;44.798;20.366;2023-04-03T04:40:27;10.77;;;9.73;;
43793;SDS011;29414;44.798;20.366;2023-04-03T04:44:27;13.25;;;10.75;;
43793;SDS011;29414;44.798;20.366;2023-04-03T04:48:27;11.68;;;10.40;;
43793;SDS011;29414;44.798;20.366;2023-04-03T04:52:27;12.65;;;10.52;;
43793;SDS011;29414;44.798;20.366;2023-04-03T04:56:28;13.05;;;10.20;;
43793;SDS011;29414;44.798;20.366;2023-04-03T05:00:28;15.52;;;10.93;;
43793;SDS011;29414;44.798;20.366;2023-04-03T05:04:28;12.45;;;11.25;;
43793;SDS011;29414;44.798;20.366;2023-04-03T05:08:28;15.18;;;11.98;;
43793;SDS011;29414;44.798;20.366;2023-04-03T05:12:29;12.57;;;11.27;;
43793;SDS011;29414;44.798;20.366;2023-04-03T05:16:29;13.90;;;11.47;;
43793;SDS011;29414;44.798;20.366;2023-04-03T05:20:29;14.87;;;12.77;;
43793;SDS011;29414;44.798;20.366;2023-04-03T05:24:30;15.63;;;13.97;;
43793;SDS011;29414;44.798;20.366;2023-04-03T05:28:33;14.93;;;13.33;;
43793;SDS011;29414;44.798;20.366;2023-04-03T05:32:34;16.63;;;13.47;;
43793;SDS011;29414;44.798;20.366;2023-04-03T05:36:34;14.52;;;13.13;;
43793;SDS011;29414;44.798;20.366;2023-04-03T05:40:37;15.80;;;13.60;;
43793;SDS011;29414;44.798;20.366;2023-04-03T05:44:38;18.60;;;15.63;;
43793;SDS011;29414;44.798;20.366;2023-04-03T05:48:38;19.40;;;14.57;;
43793;SDS011;29414;44.798;20.366;2023-04-03T05:52:40;17.75;;;14.57;;
43793;SDS011;29414;44.798;20.366;2023-04-03T05:56:41;14.60;;;13.00;;
43793;SDS011;29414;44.798;20.366;2023-04-03T06:00:42;15.30;;;13.70;;
43793;SDS011;29414;44.798;20.366;2023-04-03T06:04:42;14.23;;;12.87;;
43793;SDS011;29414;44.798;20.366;2023-04-03T06:08:42;14.98;;;13.50;;
43793;SDS011;29414;44.798;20.366;2023-04-03T06:12:43;18.70;;;13.57;;
43793;SDS011;29414;44.798;20.366;2023-04-03T06:16:46;14.48;;;12.98;;
43793;SDS011;29414;44.798;20.366;2023-04-03T06:20:47;14.23;;;12.83;;
43793;SDS011;29414;44.798;20.366;2023-04-03T06:24:47;14.13;;;12.70;;
43793;SDS011;29414;44.798;20.366;2023-04-03T06:28:47;13.95;;;11.82;;
43793;SDS011;29414;44.798;20.366;2023-04-03T06:32:48;13.43;;;12.00;;
43793;SDS011;29414;44.798;20.366;2023-04-03T06:36:48;15.23;;;13.73;;
43793;SDS011;29414;44.798;20.366;2023-04-03T06:40:51;12.20;;;11.07;;
43793;SDS011;29414;44.798;20.366;2023-04-03T06:44:51;13.77;;;10.90;;
43793;SDS011;29414;44.798;20.366;2023-04-03T06:48:52;11.70;;;10.47;;
43793;SDS011;29414;44.798;20.366;2023-04-03T06:52:52;11.50;;;10.40;;
43793;SDS011;29414;44.798;20.366;2023-04-03T06:56:52;11.70;;;9.87;;
43793;SDS011;29414;44.798;20.366;2023-04-03T07:00:53;6.87;;;6.17;;
43793;SDS011;29414;44.798;20.366;2023-04-03T07:04:53;6.45;;;4.57;;
43793;SDS011;29414;44.798;20.366;2023-04-03T07:08:54;5.00;;;4.40;;
43793;SDS011;29414;44.798;20.366;2023-04-03T07:12:54;6.87;;;4.40;;
43793;SDS011;29414;44.798;20.366;2023-04-03T07:16:54;5.18;;;4.68;;
43793;SDS011;29414;44.798;20.366;2023-04-03T07:20:54;4.88;;;4.47;;
43793;SDS011;29414;44.798;20.366;2023-04-03T07:24:55;5.27;;;4.30;;
43793;SDS011;29414;44.798;20.366;2023-04-03T07:28:55;5.23;;;3.47;;
43793;SDS011;29414;44.798;20.366;2023-04-03T07:32:56;3.20;;;2.93;;
43793;SDS011;29414;44.798;20.366;2023-04-03T07:36:56;3.27;;;2.27;;
43793;SDS011;29414;44.798;20.366;2023-04-03T07:40:56;3.03;;;2.72;;
43793;SDS011;29414;44.798;20.366;2023-04-03T07:44:57;7.37;;;3.27;;
43793;SDS011;29414;44.798;20.366;2023-04-03T07:48:57;3.85;;;3.22;;
43793;SDS011;29414;44.798;20.366;2023-04-03T07:52:58;4.97;;;4.20;;
43793;SDS011;29414;44.798;20.366;2023-04-03T07:56:58;4.43;;;2.90;;
43793;SDS011;29414;44.798;20.366;2023-04-03T08:00:58;3.08;;;2.80;;
43793;SDS011;29414;44.798;20.366;2023-04-03T08:04:58;5.00;;;3.00;;
43793;SDS011;29414;44.798;20.366;2023-04-03T08:08:59;2.50;;;2.13;;
43793;SDS011;29414;44.798;20.366;2023-04-03T08:12:59;3.60;;;3.10;;
43793;SDS011;29414;44.798;20.366;2023-04-03T08:17:00;4.27;;;3.33;;
43793;SDS011;29414;44.798;20.366;2023-04-03T08:21:00;4.30;;;2.93;;
43793;SDS011;29414;44.798;20.366;2023-04-03T08:25:00;2.13;;;1.97;;
43793;SDS011;29414;44.798;20.366;2023-04-03T08:29:01;2.60;;;2.37;;
43793;SDS011;29414;44.798;20.366;2023-04-03T08:33:02;2.00;;;1.90;;
43793;SDS011;29414;44.798;20.366;2023-04-03T08:37:02;4.83;;;2.47;;
43793;SDS011;29414;44.798;20.366;2023-04-03T08:45:13;3.20;;;1.80;;
43793;SDS011;29414;44.798;20.366;2023-04-03T08:49:18;2.03;;;1.83;;
43793;SDS011;29414;44.798;20.366;2023-04-03T08:53:21;4.90;;;2.30;;
43793;SDS011;29414;44.798;20.366;2023-04-03T08:57:44;3.87;;;2.27;;
43793;SDS011;29414;44.798;20.366;2023-04-03T09:01:44;2.67;;;2.20;;
43793;SDS011;29414;44.798;20.366;2023-04-03T09:09:45;1.87;;;1.77;;
43793;SDS011;29414;44.798;20.366;2023-04-03T09:13:56;3.53;;;1.90;;
43793;SDS011;29414;44.798;20.366;2023-04-03T09:26:36;3.33;;;2.73;;
43793;SDS011;29414;44.798;20.366;2023-04-03T09:30:34;2.67;;;2.47;;
43793;SDS011;29414;44.798;20.366;2023-04-03T09:34:36;2.93;;;2.20;;
43793;SDS011;29414;44.798;20.366;2023-04-03T09:38:36;3.57;;;3.10;;
43793;SDS011;29414;44.798;20.366;2023-04-03T09:42:38;3.20;;;2.90;;
43793;SDS011;29414;44.798;20.366;2023-04-03T09:46:43;5.33;;;3.40;;
43793;SDS011;29414;44.798;20.366;2023-04-03T09:54:50;4.00;;;2.90;;
43793;SDS011;29414;44.798;20.366;2023-04-03T10:02:51;5.85;;;3.55;;
43793;SDS011;29414;44.798;20.366;2023-04-03T10:06:53;3.47;;;3.17;;
43793;SDS011;29414;44.798;20.366;2023-04-03T10:11:08;3.20;;;2.57;;
43793;SDS011;29414;44.798;20.366;2023-04-03T10:15:13;5.15;;;2.67;;
43793;SDS011;29414;44.798;20.366;2023-04-03T10:19:32;3.27;;;2.70;;
43793;SDS011;29414;44.798;20.366;2023-04-03T10:23:37;4.40;;;2.53;;
43793;SDS011;29414;44.798;20.366;2023-04-03T10:27:47;3.97;;;2.70;;
43793;SDS011;29414;44.798;20.366;2023-04-03T10:31:54;4.50;;;2.87;;
43793;SDS011;29414;44.798;20.366;2023-04-03T10:36:17;3.93;;;2.50;;
43793;SDS011;29414;44.798;20.366;2023-04-03T10:44:36;3.60;;;2.87;;
43793;SDS011;29414;44.798;20.366;2023-04-03T10:48:40;4.22;;;2.97;;
43793;SDS011;29414;44.798;20.366;2023-04-03T10:56:50;5.23;;;3.23;;
43793;SDS011;29414;44.798;20.366;2023-04-03T11:00:51;4.97;;;3.00;;
43793;SDS011;29414;44.798;20.366;2023-04-03T11:04:55;6.47;;;2.37;;
43793;SDS011;29414;44.798;20.366;2023-04-03T11:08:58;6.27;;;2.53;;
43793;SDS011;29414;44.798;20.366;2023-04-03T11:13:02;3.53;;;3.20;;
43793;SDS011;29414;44.798;20.366;2023-04-03T11:25:15;3.83;;;2.53;;
43793;SDS011;29414;44.798;20.366;2023-04-03T11:29:20;2.83;;;2.63;;
43793;SDS011;29414;44.798;20.366;2023-04-03T11:37:48;4.07;;;2.60;;
43793;SDS011;29414;44.798;20.366;2023-04-03T11:41:50;2.23;;;2.13;;
43793;SDS011;29414;44.798;20.366;2023-04-03T11:45:54;3.30;;;2.77;;
43793;SDS011;29414;44.798;20.366;2023-04-03T11:54:34;3.33;;;3.00;;
43793;SDS011;29414;44.798;20.366;2023-04-03T11:58:23;5.00;;;3.57;;
43793;SDS011;29414;44.798;20.366;2023-04-03T12:02:35;3.40;;;3.10;;
43793;SDS011;29414;44.798;20.366;2023-04-03T12:10:36;4.53;;;3.97;;
43793;SDS011;29414;44.798;20.366;2023-04-03T12:14:36;3.73;;;3.43;;
43793;SDS011;29414;44.798;20.366;2023-04-03T12:18:44;3.00;;;2.67;;
43793;SDS011;29414;44.798;20.366;2023-04-03T12:27:16;3.00;;;2.80;;
43793;SDS011;29414;44.798;20.366;2023-04-03T12:31:17;3.07;;;2.87;;
43793;SDS011;29414;44.798;20.366;2023-04-03T12:35:37;3.93;;;3.33;;
43793;SDS011;29414;44.798;20.366;2023-04-03T12:44:07;4.57;;;3.50;;
43793;SDS011;29414;44.798;20.366;2023-04-03T12:48:13;6.50;;;4.00;;
43793;SDS011;29414;44.798;20.366;2023-04-03T12:52:17;6.53;;;4.03;;
43793;SDS011;29414;44.798;20.366;2023-04-03T13:00:36;7.43;;;2.40;;
43793;SDS011;29414;44.798;20.366;2023-04-03T13:04:39;6.23;;;3.10;;
43793;SDS011;29414;44.798;20.366;2023-04-03T13:08:47;3.83;;;2.53;;
43793;SDS011;29414;44.798;20.366;2023-04-03T13:12:49;3.67;;;3.37;;
43793;SDS011;29414;44.798;20.366;2023-04-03T13:16:53;4.47;;;2.87;;
43793;SDS011;29414;44.798;20.366;2023-04-03T13:25:03;4.10;;;2.90;;
43793;SDS011;29414;44.798;20.366;2023-04-03T13:29:06;3.17;;;2.57;;
43793;SDS011;29414;44.798;20.366;2023-04-03T13:33:19;3.07;;;2.70;;
43793;SDS011;29414;44.798;20.366;2023-04-03T13:37:31;4.07;;;2.67;;
43793;SDS011;29414;44.798;20.366;2023-04-03T13:41:36;4.53;;;2.93;;
43793;SDS011;29414;44.798;20.366;2023-04-03T13:45:37;2.38;;;2.20;;
43793;SDS011;29414;44.798;20.366;2023-04-03T13:49:38;3.85;;;2.47;;
43793;SDS011;29414;44.798;20.366;2023-04-03T13:53:47;3.07;;;2.87;;
43793;SDS011;29414;44.798;20.366;2023-04-03T13:58:16;2.93;;;2.37;;
43793;SDS011;29414;44.798;20.366;2023-04-03T14:06:20;7.43;;;2.90;;
43793;SDS011;29414;44.798;20.366;2023-04-03T14:10:20;1.93;;;1.80;;
43793;SDS011;29414;44.798;20.366;2023-04-03T14:14:22;4.83;;;2.87;;
43793;SDS011;29414;44.798;20.366;2023-04-03T14:18:23;2.27;;;1.90;;
43793;SDS011;29414;44.798;20.366;2023-04-03T14:22:28;5.23;;;2.53;;
43793;SDS011;29414;44.798;20.366;2023-04-03T14:26:28;3.33;;;2.93;;
43793;SDS011;29414;44.798;20.366;2023-04-03T14:30:31;4.43;;;2.53;;
43793;SDS011;29414;44.798;20.366;2023-04-03T14:34:32;3.33;;;3.03;;
43793;SDS011;29414;44.798;20.366;2023-04-03T14:38:32;2.88;;;2.40;;
43793;SDS011;29414;44.798;20.366;2023-04-03T14:42:34;2.57;;;2.10;;
43793;SDS011;29414;44.798;20.366;2023-04-03T14:46:36;2.30;;;2.20;;
43793;SDS011;29414;44.798;20.366;2023-04-03T14:50:37;2.73;;;1.33;;
43793;SDS011;29414;44.798;20.366;2023-04-03T14:54:37;1.67;;;1.58;;
43793;SDS011;29414;44.798;20.366;2023-04-03T14:58:37;1.80;;;1.68;;
43793;SDS011;29414;44.798;20.366;2023-04-03T15:02:38;3.57;;;1.83;;
43793;SDS011;29414;44.798;20.366;2023-04-03T15:06:39;1.87;;;1.70;;
43793;SDS011;29414;44.798;20.366;2023-04-03T15:10:39;6.13;;;2.10;;
43793;SDS011;29414;44.798;20.366;2023-04-03T15:14:39;2.27;;;2.00;;
43793;SDS011;29414;44.798;20.366;2023-04-03T15:18:40;2.28;;;2.00;;
43793;SDS011;29414;44.798;20.366;2023-04-03T15:22:40;4.30;;;1.70;;
43793;SDS011;29414;44.798;20.366;2023-04-03T15:26:40;4.10;;;1.87;;
43793;SDS011;29414;44.798;20.366;2023-04-03T15:30:41;2.77;;;1.47;;
43793;SDS011;29414;44.798;20.366;2023-04-03T15:34:42;2.17;;;1.97;;
43793;SDS011;29414;44.798;20.366;2023-04-03T15:38:42;4.70;;;2.33;;
43793;SDS011;29414;44.798;20.366;2023-04-03T15:42:46;5.10;;;2.65;;
43793;SDS011;29414;44.798;20.366;2023-04-03T15:46:46;3.93;;;2.10;;
43793;SDS011;29414;44.798;20.366;2023-04-03T15:50:48;3.37;;;1.83;;
43793;SDS011;29414;44.798;20.366;2023-04-03T15:54:48;2.27;;;2.07;;
43793;SDS011;29414;44.798;20.366;2023-04-03T15:58:49;3.18;;;2.06;;
43793;SDS011;29414;44.798;20.366;2023-04-03T16:02:50;3.38;;;1.95;;
43793;SDS011;29414;44.798;20.366;2023-04-03T16:06:51;2.77;;;2.27;;
43793;SDS011;29414;44.798;20.366;2023-04-03T16:10:52;2.37;;;2.17;;
43793;SDS011;29414;44.798;20.366;2023-04-03T16:14:52;2.17;;;1.80;;
43793;SDS011;29414;44.798;20.366;2023-04-03T16:18:53;2.60;;;2.20;;
43793;SDS011;29414;44.798;20.366;2023-04-03T16:22:55;2.63;;;1.83;;
43793;SDS011;29414;44.798;20.366;2023-04-03T16:26:56;2.73;;;1.70;;
43793;SDS011;29414;44.798;20.366;2023-04-03T16:30:56;5.68;;;1.90;;
43793;SDS011;29414;44.798;20.366;2023-04-03T16:34:57;7.97;;;1.67;;
43793;SDS011;29414;44.798;20.366;2023-04-03T16:38:57;2.80;;;1.37;;
43793;SDS011;29414;44.798;20.366;2023-04-03T16:42:57;2.33;;;1.50;;
43793;SDS011;29414;44.798;20.366;2023-04-03T16:46:58;2.25;;;1.80;;
43793;SDS011;29414;44.798;20.366;2023-04-03T16:50:58;3.37;;;1.27;;
43793;SDS011;29414;44.798;20.366;2023-04-03T16:54:59;3.97;;;1.00;;
43793;SDS011;29414;44.798;20.366;2023-04-03T16:58:59;5.13;;;1.30;;
43793;SDS011;29414;44.798;20.366;2023-04-03T17:03:00;2.00;;;1.40;;
43793;SDS011;29414;44.798;20.366;2023-04-03T17:07:00;4.20;;;1.63;;
43793;SDS011;29414;44.798;20.366;2023-04-03T17:11:05;4.87;;;2.37;;
43793;SDS011;29414;44.798;20.366;2023-04-03T17:15:06;6.50;;;2.10;;
43793;SDS011;29414;44.798;20.366;2023-04-03T17:19:06;5.63;;;2.20;;
43793;SDS011;29414;44.798;20.366;2023-04-03T17:23:06;6.97;;;1.67;;
43793;SDS011;29414;44.798;20.366;2023-04-03T17:27:07;4.47;;;1.17;;
43793;SDS011;29414;44.798;20.366;2023-04-03T17:31:07;3.50;;;1.38;;
43793;SDS011;29414;44.798;20.366;2023-04-03T17:35:08;3.83;;;1.85;;
43793;SDS011;29414;44.798;20.366;2023-04-03T17:39:08;5.63;;;1.40;;
43793;SDS011;29414;44.798;20.366;2023-04-03T17:43:08;5.65;;;1.95;;
43793;SDS011;29414;44.798;20.366;2023-04-03T17:47:10;2.73;;;1.20;;
43793;SDS011;29414;44.798;20.366;2023-04-03T17:51:11;3.90;;;1.20;;
43793;SDS011;29414;44.798;20.366;2023-04-03T17:55:12;4.60;;;1.53;;
43793;SDS011;29414;44.798;20.366;2023-04-03T17:59:14;7.53;;;1.27;;
43793;SDS011;29414;44.798;20.366;2023-04-03T18:03:14;4.60;;;1.93;;
43793;SDS011;29414;44.798;20.366;2023-04-03T18:07:15;4.33;;;1.50;;
43793;SDS011;29414;44.798;20.366;2023-04-03T18:11:15;6.13;;;1.40;;
43793;SDS011;29414;44.798;20.366;2023-04-03T18:15:16;6.90;;;1.40;;
43793;SDS011;29414;44.798;20.366;2023-04-03T18:19:17;9.43;;;1.37;;
43793;SDS011;29414;44.798;20.366;2023-04-03T18:23:19;2.57;;;0.83;;
43793;SDS011;29414;44.798;20.366;2023-04-03T18:27:20;7.43;;;1.57;;
43793;SDS011;29414;44.798;20.366;2023-04-03T18:31:21;5.47;;;1.40;;
43793;SDS011;29414;44.798;20.366;2023-04-03T18:35:21;10.80;;;1.43;;
43793;SDS011;29414;44.798;20.366;2023-04-03T18:39:22;14.82;;;2.05;;
43793;SDS011;29414;44.798;20.366;2023-04-03T18:43:23;8.48;;;1.02;;
43793;SDS011;29414;44.798;20.366;2023-04-03T18:47:26;8.23;;;1.67;;
43793;SDS011;29414;44.798;20.366;2023-04-03T18:51:26;9.17;;;1.57;;
43793;SDS011;29414;44.798;20.366;2023-04-03T18:55:26;6.70;;;1.60;;
43793;SDS011;29414;44.798;20.366;2023-04-03T18:59:27;7.27;;;1.40;;
43793;SDS011;29414;44.798;20.366;2023-04-03T19:03:27;9.50;;;1.70;;
43793;SDS011;29414;44.798;20.366;2023-04-03T19:07:29;8.17;;;1.83;;
43793;SDS011;29414;44.798;20.366;2023-04-03T19:11:29;7.77;;;1.60;;
43793;SDS011;29414;44.798;20.366;2023-04-03T19:15:30;4.87;;;1.30;;
43793;SDS011;29414;44.798;20.366;2023-04-03T19:19:30;10.93;;;1.67;;
43793;SDS011;29414;44.798;20.366;2023-04-03T19:23:31;8.40;;;2.10;;
43793;SDS011;29414;44.798;20.366;2023-04-03T19:27:31;10.75;;;1.83;;
43793;SDS011;29414;44.798;20.366;2023-04-03T19:31:31;13.07;;;2.63;;
43793;SDS011;29414;44.798;20.366;2023-04-03T19:35:32;12.23;;;1.70;;
43793;SDS011;29414;44.798;20.366;2023-04-03T19:39:32;9.05;;;1.75;;
43793;SDS011;29414;44.798;20.366;2023-04-03T19:43:34;21.90;;;2.27;;
43793;SDS011;29414;44.798;20.366;2023-04-03T19:47:34;15.83;;;1.93;;
43793;SDS011;29414;44.798;20.366;2023-04-03T19:51:35;10.50;;;2.80;;
43793;SDS011;29414;44.798;20.366;2023-04-03T19:55:35;14.07;;;2.92;;
43793;SDS011;29414;44.798;20.366;2023-04-03T19:59:36;13.20;;;3.13;;
43793;SDS011;29414;44.798;20.366;2023-04-03T20:03:36;16.37;;;2.37;;
43793;SDS011;29414;44.798;20.366;2023-04-03T20:07:37;14.03;;;2.50;;
43793;SDS011;29414;44.798;20.366;2023-04-03T20:11:37;13.38;;;2.58;;
43793;SDS011;29414;44.798;20.366;2023-04-03T20:15:39;15.53;;;2.53;;
43793;SDS011;29414;44.798;20.366;2023-04-03T20:19:40;20.80;;;3.17;;
43793;SDS011;29414;44.798;20.366;2023-04-03T20:23:40;15.80;;;2.63;;
43793;SDS011;29414;44.798;20.366;2023-04-03T20:27:40;21.08;;;2.85;;
43793;SDS011;29414;44.798;20.366;2023-04-03T20:31:40;11.00;;;1.92;;
43793;SDS011;29414;44.798;20.366;2023-04-03T20:35:41;25.87;;;3.10;;
43793;SDS011;29414;44.798;20.366;2023-04-03T20:39:42;19.53;;;2.53;;
43793;SDS011;29414;44.798;20.366;2023-04-03T20:43:42;16.53;;;2.87;;
43793;SDS011;29414;44.798;20.366;2023-04-03T20:47:43;22.70;;;2.80;;
43793;SDS011;29414;44.798;20.366;2023-04-03T20:51:43;25.40;;;4.43;;
43793;SDS011;29414;44.798;20.366;2023-04-03T20:55:53;23.67;;;4.33;;
43793;SDS011;29414;44.798;20.366;2023-04-03T20:59:53;27.00;;;4.30;;
43793;SDS011;29414;44.798;20.366;2023-04-03T21:03:55;40.73;;;5.87;;
43793;SDS011;29414;44.798;20.366;2023-04-03T21:20:41;32.73;;;3.50;;
43793;SDS011;29414;44.798;20.366;2023-04-03T21:24:42;23.33;;;3.58;;
43793;SDS011;29414;44.798;20.366;2023-04-03T21:28:42;24.00;;;3.10;;
43793;SDS011;29414;44.798;20.366;2023-04-03T21:32:43;25.43;;;3.60;;
43793;SDS011;29414;44.798;20.366;2023-04-03T21:36:43;20.60;;;3.17;;
43793;SDS011;29414;44.798;20.366;2023-04-03T21:40:43;24.57;;;3.60;;
43793;SDS011;29414;44.798;20.366;2023-04-03T21:44:45;20.10;;;2.87;;
43793;SDS011;29414;44.798;20.366;2023-04-03T21:48:48;23.47;;;3.13;;
43793;SDS011;29414;44.798;20.366;2023-04-03T21:52:48;19.77;;;3.97;;
43793;SDS011;29414;44.798;20.366;2023-04-03T21:56:51;15.93;;;3.23;;
43793;SDS011;29414;44.798;20.366;2023-04-03T22:00:51;19.35;;;3.75;;
43793;SDS011;29414;44.798;20.366;2023-04-03T22:04:52;20.70;;;3.13;;
43793;SDS011;29414;44.798;20.366;2023-04-03T22:08:53;17.13;;;2.37;;
43793;SDS011;29414;44.798;20.366;2023-04-03T22:12:55;29.63;;;4.30;;
43793;SDS011;29414;44.798;20.366;2023-04-03T22:16:56;22.27;;;3.45;;
43793;SDS011;29414;44.798;20.366;2023-04-03T22:20:57;13.47;;;2.17;;
43793;SDS011;29414;44.798;20.366;2023-04-03T22:24:57;12.63;;;2.40;;
43793;SDS011;29414;44.798;20.366;2023-04-03T22:28:57;9.75;;;2.42;;
43793;SDS011;29414;44.798;20.366;2023-04-03T22:32:58;8.90;;;2.65;;
43793;SDS011;29414;44.798;20.366;2023-04-03T22:36:58;9.15;;;2.78;;
43793;SDS011;29414;44.798;20.366;2023-04-03T22:40:58;13.88;;;2.35;;
43793;SDS011;29414;44.798;20.366;2023-04-03T22:44:59;6.03;;;2.33;;
43793;SDS011;29414;44.798;20.366;2023-04-03T22:48:59;8.30;;;2.60;;
43793;SDS011;29414;44.798;20.366;2023-04-03T22:53:00;10.00;;;2.57;;
43793;SDS011;29414;44.798;20.366;2023-04-03T22:57:00;9.70;;;2.95;;
43793;SDS011;29414;44.798;20.366;2023-04-03T23:01:04;10.40;;;3.30;;
43793;SDS011;29414;44.798;20.366;2023-04-03T23:05:05;3.80;;;2.63;;
43793;SDS011;29414;44.798;20.366;2023-04-03T23:09:07;8.07;;;2.83;;
43793;SDS011;29414;44.798;20.366;2023-04-03T23:13:07;6.90;;;2.60;;
43793;SDS011;29414;44.798;20.366;2023-04-03T23:17:07;6.28;;;2.75;;
43793;SDS011;29414;44.798;20.366;2023-04-03T23:21:08;5.90;;;3.00;;
43793;SDS011;29414;44.798;20.366;2023-04-03T23:25:08;5.83;;;2.70;;
43793;SDS011;29414;44.798;20.366;2023-04-03T23:29:09;9.43;;;3.43;;
43793;SDS011;29414;44.798;20.366;2023-04-03T23:33:09;4.45;;;2.92;;
43793;SDS011;29414;44.798;20.366;2023-04-03T23:37:10;5.07;;;2.88;;
43793;SDS011;29414;44.798;20.366;2023-04-03T23:41:10;13.63;;;4.00;;
43793;SDS011;29414;44.798;20.366;2023-04-03T23:45:11;6.27;;;3.43;;
43793;SDS011;29414;44.798;20.366;2023-04-03T23:49:12;5.93;;;2.90;;
43793;SDS011;29414;44.798;20.366;2023-04-03T23:53:12;8.70;;;3.53;;
43793;SDS011;29414;44.798;20.366;2023-04-03T23:57:12;6.03;;;3.37;;
